createdAt,value
2018-09-20T00:01:08.501Z,280.00
2018-09-20T00:02:08.821Z,272.00
2018-09-20T00:04:02.009Z,280.00
2018-09-20T00:05:02.168Z,280.00
2018-09-20T00:06:55.516Z,276.00
2018-09-20T00:07:55.166Z,280.00
2018-09-20T00:09:48.761Z,284.00
2018-09-20T00:10:48.514Z,280.00
2018-09-20T00:12:42.961Z,284.00
2018-09-20T00:13:42.388Z,284.00
2018-09-20T00:15:35.835Z,284.00
2018-09-20T00:16:35.735Z,284.00
2018-09-20T00:18:29.089Z,288.00
2018-09-20T00:19:29.075Z,288.00
2018-09-20T00:21:22.681Z,292.00
2018-09-20T00:22:22.420Z,296.00
2018-09-20T00:24:15.763Z,296.00
2018-09-20T00:25:15.751Z,296.00
2018-09-20T00:27:09.323Z,296.00
2018-09-20T00:28:09.426Z,304.00
2018-09-20T00:30:02.479Z,300.00
2018-09-20T00:31:02.438Z,300.00
2018-09-20T00:32:56.397Z,304.00
2018-09-20T00:33:55.787Z,300.00
2018-09-20T00:35:49.013Z,300.00
2018-09-20T00:36:48.653Z,304.00
2018-09-20T00:37:48.643Z,304.00
2018-09-20T00:38:48.633Z,304.00
2018-09-20T00:39:48.952Z,304.00
2018-09-20T00:40:48.617Z,304.00
2018-09-20T00:41:48.634Z,296.00
2018-09-20T00:42:48.618Z,300.00
2018-09-20T00:43:48.610Z,300.00
2018-09-20T00:44:48.586Z,300.00
2018-09-20T00:45:48.908Z,300.00
2018-09-20T00:46:48.563Z,300.00
2018-09-20T00:47:48.554Z,308.00
2018-09-20T00:48:48.881Z,312.00
2018-09-20T00:49:48.538Z,316.00
2018-09-20T00:52:20.750Z,324.00
2018-09-20T00:53:20.570Z,324.00
2018-09-20T00:55:13.931Z,312.00
2018-09-20T00:56:14.254Z,316.00
2018-09-20T00:57:15.867Z,320.00
2018-09-20T00:58:13.936Z,324.00
2018-09-20T00:59:13.893Z,332.00
2018-09-20T01:00:13.881Z,336.00
2018-09-20T01:01:13.874Z,328.00
2018-09-20T01:02:13.872Z,320.00
2018-09-20T01:03:14.204Z,324.00
2018-09-20T01:04:13.873Z,320.00
2018-09-20T01:05:13.836Z,320.00
2018-09-20T01:06:13.825Z,328.00
2018-09-20T01:07:13.821Z,332.00
2018-09-20T01:08:13.813Z,340.00
2018-09-20T01:10:13.822Z,340.00
2018-09-20T01:11:13.786Z,344.00
2018-09-20T01:12:13.790Z,348.00
2018-09-20T01:13:13.776Z,344.00
2018-09-20T01:14:13.769Z,344.00
2018-09-20T01:15:14.088Z,356.00
2018-09-20T01:16:13.746Z,356.00
2018-09-20T01:17:13.737Z,356.00
2018-09-20T01:18:13.731Z,352.00
2018-09-20T01:19:13.712Z,352.00
2018-09-20T01:20:13.710Z,352.00
2018-09-20T01:21:13.730Z,348.00
2018-09-20T01:23:45.987Z,356.00
2018-09-20T01:24:45.802Z,352.00
2018-09-20T01:26:39.549Z,356.00
2018-09-20T01:27:39.098Z,352.00
2018-09-20T01:29:32.648Z,352.00
2018-09-20T01:30:32.442Z,360.00
2018-09-20T01:32:25.789Z,364.00
2018-09-20T01:33:25.782Z,372.00
2018-09-20T01:35:19.376Z,380.00
2018-09-20T01:36:19.112Z,388.00
2018-09-20T01:38:12.562Z,388.00
2018-09-20T01:39:12.459Z,384.00
2018-09-20T01:41:06.447Z,388.00
2018-09-20T01:42:06.136Z,384.00
2018-09-20T01:43:05.805Z,392.00
2018-09-20T01:44:05.792Z,392.00
2018-09-20T01:45:05.781Z,396.00
2018-09-20T01:46:06.100Z,392.00
2018-09-20T01:47:05.764Z,400.00
2018-09-20T01:48:06.085Z,396.00
2018-09-20T01:49:05.768Z,392.00
2018-09-20T01:50:05.734Z,384.00
2018-09-20T01:51:05.729Z,380.00
2018-09-20T01:52:06.048Z,372.00
2018-09-20T01:54:38.200Z,364.00
2018-09-20T01:55:37.751Z,356.00
2018-09-20T01:56:37.748Z,368.00
2018-09-20T01:57:37.738Z,368.00
2018-09-20T01:58:38.068Z,376.00
2018-09-20T01:59:37.732Z,368.00
2018-09-20T02:00:37.720Z,364.00
2018-09-20T02:01:37.740Z,368.00
2018-09-20T02:02:38.030Z,372.00
2018-09-20T02:03:37.689Z,380.00
2018-09-20T02:04:38.010Z,376.00
2018-09-20T02:05:37.672Z,372.00
2018-09-20T02:06:37.656Z,368.00
2018-09-20T02:07:37.985Z,372.00
2018-09-20T02:08:37.977Z,372.00
2018-09-20T02:09:37.974Z,372.00
2018-09-20T02:10:37.630Z,388.00
2018-09-20T02:11:37.950Z,384.00
2018-09-20T02:12:37.607Z,368.00
2018-09-20T02:13:37.599Z,368.00
2018-09-20T02:14:37.584Z,376.00
2018-09-20T02:15:37.602Z,368.00
2018-09-20T02:16:37.569Z,364.00
2018-09-20T02:17:37.587Z,364.00
2018-09-20T02:18:37.888Z,364.00
2018-09-20T02:19:37.571Z,380.00
2018-09-20T02:20:37.542Z,388.00
2018-09-20T02:21:37.887Z,388.00
2018-09-20T02:22:37.521Z,396.00
2018-09-20T02:23:37.507Z,408.00
2018-09-20T02:24:37.536Z,400.00
2018-09-20T02:25:37.498Z,400.00
2018-09-20T02:26:37.833Z,408.00
2018-09-20T02:27:37.486Z,408.00
2018-09-20T02:28:37.824Z,392.00
2018-09-20T02:29:37.461Z,380.00
2018-09-20T02:30:37.463Z,368.00
2018-09-20T02:31:37.440Z,404.00
2018-09-20T02:32:37.791Z,400.00
2018-09-20T02:33:37.431Z,396.00
2018-09-20T02:34:37.420Z,404.00
2018-09-20T02:35:37.745Z,396.00
2018-09-20T02:36:37.736Z,388.00
2018-09-20T02:37:37.393Z,404.00
2018-09-20T02:38:37.718Z,404.00
2018-09-20T02:39:37.384Z,404.00
2018-09-20T02:40:37.396Z,384.00
2018-09-20T02:41:37.359Z,364.00
2018-09-20T02:42:37.381Z,384.00
2018-09-20T02:43:37.697Z,368.00
2018-09-20T02:44:37.327Z,368.00
2018-09-20T02:45:37.327Z,356.00
2018-09-20T02:46:37.318Z,356.00
2018-09-20T02:47:37.659Z,360.00
2018-09-20T02:48:37.303Z,356.00
2018-09-20T02:49:37.292Z,360.00
2018-09-20T02:50:37.618Z,356.00
2018-09-20T02:51:37.299Z,364.00
2018-09-20T02:52:37.264Z,352.00
2018-09-20T02:53:37.251Z,356.00
2018-09-20T02:54:37.585Z,352.00
2018-09-20T02:55:37.241Z,360.00
2018-09-20T02:56:37.227Z,360.00
2018-09-20T02:57:37.221Z,364.00
2018-09-20T02:58:37.211Z,352.00
2018-09-20T02:59:37.208Z,344.00
2018-09-20T03:00:37.192Z,368.00
2018-09-20T03:01:37.186Z,368.00
2018-09-20T03:02:37.518Z,380.00
2018-09-20T03:03:37.183Z,388.00
2018-09-20T03:04:37.164Z,392.00
2018-09-20T03:05:37.488Z,384.00
2018-09-20T03:06:37.141Z,392.00
2018-09-20T03:07:37.132Z,384.00
2018-09-20T03:08:37.147Z,412.00
2018-09-20T03:09:37.142Z,400.00
2018-09-20T03:10:37.108Z,408.00
2018-09-20T03:11:37.440Z,408.00
2018-09-20T03:12:37.134Z,392.00
2018-09-20T03:15:13.003Z,420.00
2018-09-20T03:16:09.134Z,416.00
2018-09-20T03:17:09.125Z,432.00
2018-09-20T03:18:09.118Z,440.00
2018-09-20T03:19:09.109Z,456.00
2018-09-20T03:20:09.118Z,456.00
2018-09-20T03:21:09.427Z,448.00
2018-09-20T03:22:09.434Z,424.00
2018-09-20T03:23:09.071Z,428.00
2018-09-20T03:24:09.417Z,432.00
2018-09-20T03:25:09.068Z,416.00
2018-09-20T03:26:09.052Z,412.00
2018-09-20T03:27:09.038Z,412.00
2018-09-20T03:28:09.363Z,412.00
2018-09-20T03:29:09.017Z,432.00
2018-09-20T03:30:09.032Z,428.00
2018-09-20T03:31:09.003Z,444.00
2018-09-20T03:32:09.006Z,440.00
2018-09-20T03:33:09.327Z,452.00
2018-09-20T03:34:08.975Z,452.00
2018-09-20T03:35:09.307Z,444.00
2018-09-20T03:36:08.965Z,424.00
2018-09-20T03:37:08.956Z,448.00
2018-09-20T03:38:08.947Z,460.00
2018-09-20T03:39:08.943Z,472.00
2018-09-20T03:41:40.726Z,456.00
2018-09-20T03:42:40.499Z,468.00
2018-09-20T03:44:33.853Z,440.00
2018-09-20T03:45:33.836Z,468.00
2018-09-20T03:47:27.517Z,464.00
2018-09-20T03:48:27.182Z,468.00
2018-09-20T03:50:20.531Z,464.00
2018-09-20T03:51:20.530Z,452.00
2018-09-20T03:53:14.376Z,440.00
2018-09-20T03:54:13.883Z,456.00
2018-09-20T03:56:07.372Z,452.00
2018-09-20T03:57:07.384Z,424.00
2018-09-20T03:59:04.673Z,432.00
2018-09-20T04:00:00.706Z,420.00
2018-09-20T04:01:54.141Z,408.00
2018-09-20T04:02:54.048Z,400.00
2018-09-20T04:04:47.720Z,396.00
2018-09-20T04:05:47.404Z,404.00
2018-09-20T04:07:41.085Z,416.00
2018-09-20T04:08:40.756Z,396.00
2018-09-20T04:09:40.789Z,400.00
2018-09-20T04:12:13.050Z,396.00
2018-09-20T04:13:12.753Z,392.00
2018-09-20T04:15:06.117Z,404.00
2018-09-20T04:16:06.129Z,396.00
2018-09-20T04:17:59.670Z,380.00
2018-09-20T04:18:59.456Z,388.00
2018-09-20T04:19:59.780Z,408.00
2018-09-20T04:20:59.451Z,400.00
2018-09-20T04:21:59.762Z,404.00
2018-09-20T04:22:59.749Z,408.00
2018-09-20T04:23:59.400Z,400.00
2018-09-20T04:24:59.426Z,392.00
2018-09-20T04:25:59.385Z,400.00
2018-09-20T04:26:59.375Z,416.00
2018-09-20T04:27:59.378Z,412.00
2018-09-20T04:28:59.362Z,396.00
2018-09-20T04:29:59.353Z,396.00
2018-09-20T04:30:59.338Z,400.00
2018-09-20T04:31:59.334Z,404.00
2018-09-20T04:32:59.332Z,404.00
2018-09-20T04:33:59.657Z,404.00
2018-09-20T04:34:59.317Z,416.00
2018-09-20T04:35:59.301Z,416.00
2018-09-20T04:36:59.304Z,408.00
2018-09-20T04:37:59.638Z,420.00
2018-09-20T04:38:59.276Z,420.00
2018-09-20T04:39:59.284Z,412.00
2018-09-20T04:40:59.259Z,408.00
2018-09-20T04:41:59.248Z,432.00
2018-09-20T04:44:31.867Z,464.00
2018-09-20T04:45:31.322Z,472.00
2018-09-20T04:47:24.649Z,488.00
2018-09-20T04:48:25.001Z,492.00
2018-09-20T04:49:24.625Z,500.00
2018-09-20T04:50:24.618Z,480.00
2018-09-20T04:51:24.627Z,468.00
2018-09-20T04:52:24.616Z,464.00
2018-09-20T04:53:24.662Z,452.00
2018-09-20T04:54:24.592Z,448.00
2018-09-20T04:55:24.574Z,440.00
2018-09-20T04:56:24.565Z,416.00
2018-09-20T04:57:24.918Z,420.00
2018-09-20T04:58:24.546Z,424.00
2018-09-20T04:59:24.548Z,424.00
2018-09-20T05:00:24.537Z,408.00
2018-09-20T05:01:25.236Z,432.00
2018-09-20T05:02:24.863Z,428.00
2018-09-20T05:03:24.508Z,420.00
2018-09-20T05:04:24.493Z,404.00
2018-09-20T05:05:24.517Z,420.00
2018-09-20T05:06:24.488Z,420.00
2018-09-20T05:08:56.844Z,412.00
2018-09-20T05:09:56.857Z,412.00
2018-09-20T05:11:49.395Z,432.00
2018-09-20T05:12:49.718Z,448.00
2018-09-20T05:14:46.968Z,432.00
2018-09-20T05:15:43.267Z,480.00
2018-09-20T05:17:36.950Z,504.00
2018-09-20T05:18:36.609Z,468.00
2018-09-20T05:20:30.142Z,492.00
2018-09-20T05:21:30.295Z,476.00
2018-09-20T05:23:23.949Z,512.00
2018-09-20T05:24:23.282Z,540.00
2018-09-20T05:26:16.863Z,540.00
2018-09-20T05:27:16.623Z,468.00
2018-09-20T05:29:09.501Z,524.00
2018-09-20T05:30:09.829Z,540.00
2018-09-20T05:32:03.191Z,516.00
2018-09-20T05:33:02.882Z,532.00
2018-09-20T05:34:56.521Z,552.00
2018-09-20T05:35:56.174Z,552.00
2018-09-20T05:37:49.378Z,552.00
2018-09-20T05:38:49.045Z,568.00
2018-09-20T05:40:42.403Z,524.00
2018-09-20T05:41:42.707Z,472.00
2018-09-20T05:43:36.031Z,424.00
2018-09-20T05:44:35.743Z,392.00
2018-09-20T05:46:29.450Z,368.00
2018-09-20T05:47:29.107Z,372.00
2018-09-20T05:49:23.059Z,420.00
2018-09-20T05:50:22.431Z,436.00
2018-09-20T05:52:15.903Z,464.00
2018-09-20T05:53:15.771Z,464.00
2018-09-20T05:56:09.485Z,408.00
2018-09-20T05:58:02.851Z,388.00
2018-09-20T05:59:02.540Z,404.00
2018-09-20T06:00:56.099Z,452.00
2018-09-20T06:01:55.842Z,444.00
2018-09-20T06:03:49.644Z,404.00
2018-09-20T06:04:49.182Z,400.00
2018-09-20T06:06:43.064Z,404.00
2018-09-20T06:07:42.818Z,404.00
2018-09-20T06:09:36.274Z,448.00
2018-09-20T06:10:36.170Z,460.00
2018-09-20T06:12:29.715Z,496.00
2018-09-20T06:15:02.024Z,468.00
2018-09-20T06:16:01.568Z,436.00
2018-09-20T06:17:55.163Z,408.00
2018-09-20T06:18:54.938Z,392.00
2018-09-20T06:20:48.293Z,372.00
2018-09-20T06:21:48.709Z,352.00
2018-09-20T06:23:41.958Z,344.00
2018-09-20T06:24:41.990Z,328.00
2018-09-20T06:26:35.599Z,336.00
2018-09-20T06:27:35.343Z,336.00
2018-09-20T06:29:28.881Z,344.00
2018-09-20T06:30:28.338Z,344.00
2018-09-20T06:32:21.680Z,344.00
2018-09-20T06:33:21.707Z,364.00
2018-09-20T06:35:15.236Z,368.00
2018-09-20T06:36:15.032Z,380.00
2018-09-20T06:38:08.390Z,376.00
2018-09-20T06:39:08.378Z,376.00
2018-09-20T06:41:02.534Z,388.00
2018-09-20T06:42:02.098Z,396.00
2018-09-20T06:43:55.446Z,384.00
2018-09-20T06:44:55.442Z,376.00
2018-09-20T06:46:49.180Z,384.00
2018-09-20T06:47:48.783Z,388.00
2018-09-20T06:49:42.235Z,364.00
2018-09-20T06:50:42.127Z,380.00
2018-09-20T06:52:35.624Z,372.00
2018-09-20T06:53:35.475Z,360.00
2018-09-20T06:55:29.436Z,364.00
2018-09-20T06:56:28.852Z,376.00
2018-09-20T06:58:23.004Z,380.00
2018-09-20T06:59:22.490Z,396.00
2018-09-20T07:01:15.601Z,396.00
2018-09-20T07:02:15.514Z,392.00
2018-09-20T07:03:15.525Z,384.00
2018-09-20T07:04:15.849Z,372.00
2018-09-20T07:05:15.489Z,384.00
2018-09-20T07:06:15.489Z,384.00
2018-09-20T07:07:15.830Z,376.00
2018-09-20T07:08:15.818Z,380.00
2018-09-20T07:09:15.450Z,384.00
2018-09-20T07:10:15.798Z,388.00
2018-09-20T07:11:15.487Z,380.00
2018-09-20T07:12:15.444Z,376.00
2018-09-20T07:13:15.426Z,372.00
2018-09-20T07:14:15.452Z,352.00
2018-09-20T07:15:15.734Z,344.00
2018-09-20T07:17:48.537Z,328.00
2018-09-20T07:18:47.978Z,332.00
2018-09-20T07:20:41.320Z,344.00
2018-09-20T07:21:41.310Z,352.00
2018-09-20T07:23:38.773Z,336.00
2018-09-20T07:24:34.659Z,340.00
2018-09-20T07:26:28.042Z,344.00
2018-09-20T07:27:28.020Z,352.00
2018-09-20T07:29:21.466Z,116.00
2018-09-20T07:30:21.368Z,112.00
2018-09-20T07:32:15.056Z,100.00
2018-09-20T07:33:15.067Z,108.00
2018-09-20T07:35:08.384Z,96.00
2018-09-20T07:36:08.057Z,96.00
2018-09-20T07:38:01.412Z,108.00
2018-09-20T07:39:01.405Z,96.00
2018-09-20T07:40:54.972Z,96.00
2018-09-20T07:41:54.749Z,100.00
2018-09-20T07:43:48.205Z,88.00
2018-09-20T07:44:47.616Z,96.00
2018-09-20T07:48:13.672Z,96.00
2018-09-20T07:49:13.016Z,88.00
2018-09-20T07:51:06.376Z,100.00
2018-09-20T07:52:06.356Z,96.00
2018-09-20T07:54:00.276Z,92.00
2018-09-20T07:54:59.707Z,88.00
2018-09-20T07:56:53.096Z,88.00
2018-09-20T07:57:53.347Z,80.00
2018-09-20T07:59:46.603Z,76.00
2018-09-20T08:00:46.405Z,76.00
2018-09-20T08:02:40.085Z,72.00
2018-09-20T08:03:39.717Z,64.00
2018-09-20T08:05:33.741Z,68.00
2018-09-20T08:06:33.064Z,68.00
2018-09-20T08:08:26.425Z,64.00
2018-09-20T08:09:26.429Z,64.00
2018-09-20T08:11:19.957Z,68.00
2018-09-20T08:12:19.760Z,64.00
2018-09-20T08:14:13.473Z,256.00
2018-09-20T08:15:13.106Z,264.00
2018-09-20T08:17:06.772Z,272.00
2018-09-20T08:18:06.448Z,272.00
2018-09-20T08:19:59.822Z,272.00
2018-09-20T08:20:59.787Z,272.00
2018-09-20T08:22:53.452Z,272.00
2018-09-20T08:23:53.125Z,276.00
2018-09-20T08:25:46.811Z,280.00
2018-09-20T08:26:46.835Z,276.00
2018-09-20T08:28:40.268Z,280.00
2018-09-20T08:29:40.145Z,284.00
2018-09-20T08:31:33.515Z,288.00
2018-09-20T08:32:33.149Z,288.00
2018-09-20T08:34:26.720Z,284.00
2018-09-20T08:35:26.485Z,288.00
2018-09-20T08:37:20.002Z,284.00
2018-09-20T08:38:19.846Z,288.00
2018-09-20T08:40:13.440Z,288.00
2018-09-20T08:41:13.175Z,296.00
2018-09-20T08:43:06.526Z,292.00
2018-09-20T08:44:06.856Z,292.00
2018-09-20T08:46:00.672Z,284.00
2018-09-20T08:46:59.865Z,280.00
2018-09-20T08:48:53.218Z,272.00
2018-09-20T08:49:53.224Z,268.00
2018-09-20T08:51:46.633Z,268.00
2018-09-20T08:52:46.403Z,260.00
2018-09-20T08:54:39.422Z,256.00
2018-09-20T08:55:39.407Z,260.00
2018-09-20T08:57:36.305Z,260.00
2018-09-20T08:58:32.742Z,260.00
2018-09-20T09:01:58.153Z,272.00
2018-09-20T09:02:58.150Z,268.00
2018-09-20T09:04:52.093Z,276.00
2018-09-20T09:05:52.180Z,280.00
2018-09-20T09:07:45.197Z,272.00
2018-09-20T09:08:45.518Z,280.00
2018-09-20T09:10:38.720Z,280.00
2018-09-20T09:13:31.931Z,276.00
2018-09-20T09:14:31.912Z,276.00
2018-09-20T09:16:25.527Z,272.00
2018-09-20T09:17:25.259Z,268.00
2018-09-20T09:19:20.211Z,260.00
2018-09-20T09:20:19.466Z,256.00
2018-09-20T09:22:12.695Z,252.00
2018-09-20T09:23:12.475Z,248.00
2018-09-20T09:25:05.829Z,244.00
2018-09-20T09:26:05.816Z,244.00
2018-09-20T09:27:59.376Z,244.00
2018-09-20T09:28:59.189Z,244.00
2018-09-20T09:30:52.601Z,240.00
2018-09-20T09:33:24.683Z,236.00
2018-09-20T09:34:24.605Z,236.00
2018-09-20T09:36:18.280Z,236.00
2018-09-20T09:37:17.971Z,236.00
2018-09-20T09:39:11.506Z,236.00
2018-09-20T09:40:11.311Z,228.00
2018-09-20T09:42:04.663Z,232.00
2018-09-20T09:43:04.617Z,224.00
2018-09-20T09:44:58.510Z,228.00
2018-09-20T09:45:57.955Z,220.00
2018-09-20T09:47:51.433Z,232.00
2018-09-20T09:48:51.311Z,232.00
2018-09-20T09:50:45.206Z,236.00
2018-09-20T09:51:44.654Z,236.00
2018-09-20T09:53:38.362Z,232.00
2018-09-20T09:54:38.011Z,232.00
2018-09-20T09:56:31.515Z,228.00
2018-09-20T09:57:31.681Z,228.00
2018-09-20T09:59:25.074Z,228.00
2018-09-20T10:00:25.052Z,232.00
2018-09-20T10:02:18.284Z,232.00
2018-09-20T10:03:18.048Z,228.00
2018-09-20T10:05:11.397Z,228.00
2018-09-20T10:06:11.713Z,228.00
2018-09-20T10:08:05.540Z,228.00
2018-09-20T10:09:04.729Z,232.00
2018-09-20T10:10:58.155Z,232.00
2018-09-20T10:11:58.148Z,232.00
2018-09-20T10:13:51.753Z,240.00
2018-09-20T10:14:51.829Z,236.00
2018-09-20T10:16:45.431Z,236.00
2018-09-20T10:17:44.824Z,236.00
2018-09-20T10:19:38.472Z,232.00
2018-09-20T10:20:38.522Z,236.00
2018-09-20T10:22:31.516Z,232.00
2018-09-20T10:23:31.513Z,232.00
2018-09-20T10:25:25.416Z,228.00
2018-09-20T10:26:24.859Z,224.00
2018-09-20T10:28:18.209Z,228.00
2018-09-20T10:29:18.209Z,228.00
2018-09-20T10:31:15.898Z,224.00
2018-09-20T10:32:11.541Z,224.00
2018-09-20T10:34:04.959Z,220.00
2018-09-20T10:35:04.873Z,220.00
2018-09-20T10:37:01.671Z,220.00
2018-09-20T10:37:58.221Z,224.00
2018-09-20T10:39:51.574Z,228.00
2018-09-20T10:40:51.553Z,224.00
2018-09-20T10:42:45.730Z,224.00
2018-09-20T10:43:45.287Z,224.00
2018-09-20T10:45:38.288Z,228.00
2018-09-20T10:46:38.633Z,4.00
2018-09-20T10:48:32.189Z,4.00
2018-09-20T10:49:31.619Z,4.00
2018-09-20T10:51:24.963Z,4.00
2018-09-20T10:52:24.951Z,0.00
2018-09-20T10:54:18.531Z,0.00
2018-09-20T10:55:18.302Z,0.00
2018-09-20T10:57:11.659Z,0.00
2018-09-20T10:58:11.638Z,0.00
2018-09-20T11:00:05.164Z,0.00
2018-09-20T11:01:04.982Z,0.00
2018-09-20T11:02:58.384Z,0.00
2018-09-20T11:03:58.335Z,0.00
2018-09-20T11:05:55.720Z,0.00
2018-09-20T11:06:51.669Z,0.00
2018-09-20T11:08:45.019Z,0.00
2018-09-20T11:09:45.010Z,0.00
2018-09-20T11:11:38.592Z,0.00
2018-09-20T11:12:38.341Z,0.00
2018-09-20T11:14:32.035Z,0.00
2018-09-20T11:15:31.719Z,0.00
2018-09-20T11:17:25.269Z,0.00
2018-09-20T11:18:25.035Z,0.00
2018-09-20T11:20:18.916Z,0.00
2018-09-20T11:21:18.916Z,0.00
2018-09-20T11:22:19.233Z,0.00
2018-09-20T11:23:18.891Z,0.00
2018-09-20T11:24:18.886Z,0.00
2018-09-20T11:25:18.872Z,0.00
2018-09-20T11:26:18.868Z,0.00
2018-09-20T11:27:18.873Z,0.00
2018-09-20T11:28:18.855Z,0.00
2018-09-20T11:29:18.834Z,0.00
2018-09-20T11:30:18.842Z,0.00
2018-09-20T11:31:18.818Z,0.00
2018-09-20T11:32:18.823Z,0.00
2018-09-20T11:33:18.805Z,0.00
2018-09-20T11:34:18.827Z,0.00
2018-09-20T11:35:18.787Z,0.00
2018-09-20T11:36:18.791Z,0.00
2018-09-20T11:37:18.780Z,0.00
2018-09-20T11:38:18.758Z,0.00
2018-09-20T11:39:18.760Z,0.00
2018-09-20T11:40:18.740Z,0.00
2018-09-20T11:41:18.733Z,0.00
2018-09-20T11:42:19.080Z,0.00
2018-09-20T11:43:18.752Z,0.00
2018-09-20T11:44:18.715Z,0.00
2018-09-20T11:45:18.703Z,0.00
2018-09-20T11:46:18.688Z,0.00
2018-09-20T11:47:18.687Z,0.00
2018-09-20T11:48:18.674Z,0.00
2018-09-20T11:49:18.675Z,0.00
2018-09-20T11:50:18.676Z,0.00
2018-09-20T11:51:18.679Z,0.00
2018-09-20T11:52:18.654Z,0.00
2018-09-20T11:53:19.485Z,0.00
2018-09-20T11:54:18.627Z,0.00
2018-09-20T11:55:18.619Z,0.00
2018-09-20T11:56:18.935Z,0.00
2018-09-20T11:57:18.601Z,0.00
2018-09-20T11:58:18.591Z,0.00
2018-09-20T11:59:18.935Z,0.00
2018-09-20T12:00:18.601Z,0.00
2018-09-20T12:01:18.578Z,0.00
2018-09-20T12:02:18.892Z,0.00
2018-09-20T12:03:18.553Z,0.00
2018-09-20T12:04:18.532Z,0.00
2018-09-20T12:05:18.536Z,0.00
2018-09-20T12:06:18.527Z,0.00
2018-09-20T12:07:18.542Z,0.00
2018-09-20T12:08:18.835Z,0.00
2018-09-20T12:09:18.504Z,0.00
2018-09-20T12:10:18.500Z,0.00
2018-09-20T12:11:18.815Z,0.00
2018-09-20T12:12:18.802Z,0.00
2018-09-20T12:13:18.793Z,0.00
2018-09-20T12:14:18.445Z,0.00
2018-09-20T12:15:18.782Z,0.00
2018-09-20T12:16:18.481Z,0.00
2018-09-20T12:17:18.759Z,0.00
2018-09-20T12:18:18.413Z,0.00
2018-09-20T12:19:18.757Z,0.00
2018-09-20T12:20:18.784Z,0.00
2018-09-20T12:21:18.385Z,0.00
2018-09-20T12:22:18.379Z,0.00
2018-09-20T12:23:18.702Z,0.00
2018-09-20T12:24:18.702Z,0.00
2018-09-20T12:25:18.687Z,0.00
2018-09-20T12:26:18.379Z,0.00
2018-09-20T12:27:18.362Z,0.00
2018-09-20T12:28:18.336Z,0.00
2018-09-20T12:29:18.326Z,0.00
2018-09-20T12:30:18.657Z,0.00
2018-09-20T12:31:18.303Z,0.00
2018-09-20T12:32:18.636Z,0.00
2018-09-20T12:33:18.291Z,0.00
2018-09-20T12:34:18.274Z,0.00
2018-09-20T12:35:18.289Z,0.00
2018-09-20T12:36:18.263Z,0.00
2018-09-20T12:37:18.253Z,0.00
2018-09-20T12:38:18.580Z,0.00
2018-09-20T12:39:18.233Z,0.00
2018-09-20T12:40:18.213Z,0.00
2018-09-20T12:41:18.215Z,0.00
2018-09-20T12:42:18.198Z,0.00
2018-09-20T12:43:18.539Z,0.00
2018-09-20T12:44:18.541Z,0.00
2018-09-20T12:45:18.181Z,0.00
2018-09-20T12:46:18.171Z,0.00
2018-09-20T12:47:18.496Z,0.00
2018-09-20T12:48:18.510Z,0.00
2018-09-20T12:49:18.174Z,0.00
2018-09-20T12:50:18.146Z,0.00
2018-09-20T12:51:18.124Z,0.00
2018-09-20T12:52:18.116Z,0.00
2018-09-20T12:53:18.111Z,0.00
2018-09-20T12:54:18.098Z,0.00
2018-09-20T12:55:18.448Z,0.00
2018-09-20T12:56:18.434Z,0.00
2018-09-20T12:57:18.108Z,0.00
2018-09-20T12:58:18.059Z,0.00
2018-09-20T12:59:18.057Z,0.00
2018-09-20T13:00:18.381Z,0.00
2018-09-20T13:01:18.045Z,0.00
2018-09-20T13:02:18.064Z,0.00
2018-09-20T13:03:18.046Z,0.00
2018-09-20T13:04:18.011Z,0.00
2018-09-20T13:05:18.337Z,0.00
2018-09-20T13:06:17.996Z,0.00
2018-09-20T13:07:18.318Z,0.00
2018-09-20T13:08:17.978Z,0.00
2018-09-20T13:09:17.971Z,0.00
2018-09-20T13:10:17.962Z,0.00
2018-09-20T13:11:17.945Z,0.00
2018-09-20T13:12:18.279Z,0.00
2018-09-20T13:13:18.272Z,0.00
2018-09-20T13:14:17.926Z,0.00
2018-09-20T13:15:17.908Z,0.00
2018-09-20T13:16:17.939Z,0.00
2018-09-20T13:17:17.901Z,0.00
2018-09-20T13:18:17.890Z,0.00
2018-09-20T13:19:17.906Z,0.00
2018-09-20T13:20:17.934Z,0.00
2018-09-20T13:21:17.891Z,0.00
2018-09-20T13:22:18.191Z,0.00
2018-09-20T13:23:17.846Z,0.00
2018-09-20T13:24:17.829Z,0.00
2018-09-20T13:25:17.924Z,0.00
2018-09-20T13:26:17.820Z,0.00
2018-09-20T13:27:18.165Z,0.00
2018-09-20T13:28:17.808Z,0.00
2018-09-20T13:29:18.125Z,0.00
2018-09-20T13:30:17.781Z,0.00
2018-09-20T13:31:17.783Z,0.00
2018-09-20T13:32:17.807Z,0.00
2018-09-20T13:33:17.754Z,0.00
2018-09-20T13:34:17.749Z,0.00
2018-09-20T13:35:17.753Z,0.00
2018-09-20T13:36:17.728Z,0.00
2018-09-20T13:37:17.805Z,0.00
2018-09-20T13:38:17.719Z,0.00
2018-09-20T13:39:17.708Z,0.00
2018-09-20T13:40:17.711Z,0.00
2018-09-20T13:41:17.712Z,0.00
2018-09-20T13:42:17.679Z,0.00
2018-09-20T13:43:17.718Z,0.00
2018-09-20T13:44:17.656Z,0.00
2018-09-20T13:45:17.651Z,0.00
2018-09-20T13:46:17.644Z,0.00
2018-09-20T13:47:17.635Z,0.00
2018-09-20T13:48:17.624Z,0.00
2018-09-20T13:49:17.623Z,0.00
2018-09-20T13:50:17.619Z,0.00
2018-09-20T13:51:17.940Z,0.00
2018-09-20T13:52:17.586Z,0.00
2018-09-20T13:53:17.576Z,0.00
2018-09-20T13:54:17.572Z,0.00
2018-09-20T13:55:17.594Z,0.00
2018-09-20T13:56:17.569Z,0.00
2018-09-20T13:57:17.886Z,0.00
2018-09-20T13:58:17.546Z,0.00
2018-09-20T13:59:17.531Z,0.00
2018-09-20T14:00:17.857Z,0.00
2018-09-20T14:01:17.521Z,0.00
2018-09-20T14:02:17.831Z,0.00
2018-09-20T14:03:17.495Z,0.00
2018-09-20T14:04:17.512Z,0.00
2018-09-20T14:05:17.480Z,0.00
2018-09-20T14:06:17.470Z,0.00
2018-09-20T14:07:17.800Z,0.00
2018-09-20T14:08:17.802Z,0.00
2018-09-20T14:09:17.443Z,0.00
2018-09-20T14:10:17.444Z,0.00
2018-09-20T14:11:17.459Z,0.00
2018-09-20T14:12:17.421Z,0.00
2018-09-20T14:13:17.421Z,0.00
2018-09-20T14:14:17.396Z,0.00
2018-09-20T14:15:17.434Z,0.00
2018-09-20T14:16:17.392Z,0.00
2018-09-20T14:17:17.714Z,0.00
2018-09-20T14:18:17.367Z,0.00
2018-09-20T14:19:17.694Z,0.00
2018-09-20T14:20:17.678Z,0.00
2018-09-20T14:21:17.673Z,0.00
2018-09-20T14:22:17.680Z,0.00
2018-09-20T14:23:17.656Z,0.00
2018-09-20T14:24:17.305Z,0.00
2018-09-20T14:25:17.636Z,0.00
2018-09-20T14:26:17.297Z,0.00
2018-09-20T14:27:17.287Z,0.00
2018-09-20T14:28:17.636Z,0.00
2018-09-20T14:29:17.614Z,0.00
2018-09-20T14:30:17.265Z,0.00
2018-09-20T14:31:17.254Z,0.00
2018-09-20T14:32:17.247Z,0.00
2018-09-20T14:33:17.578Z,0.00
2018-09-20T14:34:17.577Z,0.00
2018-09-20T14:35:17.553Z,0.00
2018-09-20T14:36:17.209Z,0.00
2018-09-20T14:37:17.200Z,0.00
2018-09-20T14:38:17.540Z,0.00
2018-09-20T14:39:17.200Z,0.00
2018-09-20T14:40:17.168Z,0.00
2018-09-20T14:41:17.163Z,0.00
2018-09-20T14:42:17.173Z,0.00
2018-09-20T14:43:17.484Z,0.00
2018-09-20T14:44:17.188Z,0.00
2018-09-20T14:45:17.507Z,0.00
2018-09-20T14:46:17.121Z,0.00
2018-09-20T14:47:17.111Z,0.00
2018-09-20T14:48:17.128Z,0.00
2018-09-20T14:49:17.427Z,0.00
2018-09-20T14:50:17.116Z,0.00
2018-09-20T14:51:17.424Z,0.00
2018-09-20T14:52:17.067Z,0.00
2018-09-20T14:53:17.055Z,0.00
2018-09-20T14:54:17.050Z,0.00
2018-09-20T14:55:17.040Z,0.00
2018-09-20T14:56:17.044Z,0.00
2018-09-20T14:57:17.066Z,0.00
2018-09-20T14:58:17.026Z,0.00
2018-09-20T14:59:17.003Z,0.00
2018-09-20T15:00:16.991Z,0.00
2018-09-20T15:01:16.991Z,0.00
2018-09-20T15:02:16.988Z,0.00
2018-09-20T15:03:16.999Z,0.00
2018-09-20T15:04:17.293Z,0.00
2018-09-20T15:05:16.948Z,0.00
2018-09-20T15:06:17.276Z,0.00
2018-09-20T15:07:16.950Z,0.00
2018-09-20T15:08:17.007Z,0.00
2018-09-20T15:09:16.924Z,0.00
2018-09-20T15:10:17.262Z,0.00
2018-09-20T15:11:16.944Z,0.00
2018-09-20T15:12:16.911Z,0.00
2018-09-20T15:13:17.218Z,0.00
2018-09-20T15:14:17.205Z,0.00
2018-09-20T15:15:16.930Z,0.00
2018-09-20T15:16:16.876Z,0.00
2018-09-20T15:17:17.198Z,0.00
2018-09-20T15:18:16.848Z,0.00
2018-09-20T15:19:16.824Z,0.00
2018-09-20T15:20:16.821Z,0.00
2018-09-20T15:21:17.142Z,0.00
2018-09-20T15:22:16.798Z,0.00
2018-09-20T15:23:16.792Z,0.00